Time;durP1;ratioP1;P1;durP2;ratioP2;P2;SDS_P1;SDS_P2;PMS_P1;PMS_P2;Temp;Humidity;BMP_temperature;BMP_pressure;BME280_temperature;BME280_humidity;BME280_pressure;Samples;Min_cycle;Max_cycle;Signal;HPM_P1;HPM_P2
2023/06/15 00:02:07;;;;;;;6.00;1.30;;;;;;;13.06;82.70;100402.24;110167;1273;22900;-58
2023/06/15 00:04:40;;;;;;;4.80;1.70;;;;;;;13.01;82.47;100394.67;110142;1267;22240;-60
2023/06/15 00:07:10;;;;;;;6.10;2.10;;;;;;;12.96;82.55;100393.55;110154;1271;22357;-58
2023/06/15 00:09:41;;;;;;;11.60;2.90;;;;;;;12.94;83.24;100391.24;110168;1256;22199;-57
2023/06/15 00:12:12;;;;;;;9.30;2.80;;;;;;;12.91;83.73;100390.85;110135;1274;22188;-59
2023/06/15 00:14:43;;;;;;;10.30;3.90;;;;;;;12.90;83.86;100388.48;110169;1268;22276;-59
2023/06/15 00:17:14;;;;;;;10.70;4.50;;;;;;;12.91;83.65;100392.88;110164;1274;22965;-59
2023/06/15 00:19:45;;;;;;;10.80;3.40;;;;;;;12.89;83.73;100387.45;110156;1268;22466;-59
2023/06/15 00:22:16;;;;;;;11.90;4.90;;;;;;;12.86;83.79;100381.97;110139;1264;22261;-60
2023/06/15 00:24:47;;;;;;;11.80;3.80;;;;;;;12.82;83.54;100377.23;110149;1272;22185;-58
2023/06/15 00:27:18;;;;;;;10.80;4.10;;;;;;;12.77;83.51;100370.35;110128;1275;22250;-58
2023/06/15 00:29:49;;;;;;;10.00;3.40;;;;;;;12.74;83.61;100368.42;110128;1272;22249;-58
2023/06/15 00:32:20;;;;;;;11.40;3.80;;;;;;;12.73;83.57;100365.05;110163;1272;22187;-58
2023/06/15 00:34:51;;;;;;;10.30;3.20;;;;;;;12.70;83.47;100368.58;110069;1264;22182;-58
2023/06/15 00:37:22;;;;;;;10.10;3.60;;;;;;;12.67;83.65;100369.71;110158;1272;22281;-58
2023/06/15 00:39:52;;;;;;;12.30;4.20;;;;;;;12.65;83.57;100371.06;110115;1279;22712;-62
2023/06/15 00:42:23;;;;;;;8.90;3.20;;;;;;;12.62;83.59;100370.93;110178;1276;23149;-57
2023/06/15 00:44:54;;;;;;;11.40;4.30;;;;;;;12.58;83.56;100369.45;110108;1273;22225;-58
2023/06/15 00:47:25;;;;;;;10.50;3.40;;;;;;;12.56;83.61;100369.27;110182;1276;22851;-58
2023/06/15 00:49:57;;;;;;;11.00;4.10;;;;;;;12.53;83.68;100369.59;110169;1274;22207;-58
2023/06/15 00:52:28;;;;;;;9.40;3.00;;;;;;;12.52;83.99;100370.34;110153;1272;22187;-60
2023/06/15 00:54:59;;;;;;;9.60;2.90;;;;;;;12.51;83.99;100365.48;110193;1278;22206;-58
2023/06/15 00:57:32;;;;;;;9.80;3.20;;;;;;;12.50;83.80;100362.52;110141;1269;22378;-58
2023/06/15 01:00:09;;;;;;;9.90;3.40;;;;;;;12.48;83.77;100362.07;110051;1274;22215;-58
2023/06/15 01:02:40;;;;;;;11.10;3.60;;;;;;;12.45;83.97;100360.00;110156;1276;22147;-58
2023/06/15 01:05:12;;;;;;;10.40;3.80;;;;;;;12.42;83.91;100359.30;110191;1273;22959;-60
2023/06/15 01:07:47;;;;;;;9.20;3.20;;;;;;;12.41;84.11;100356.17;110150;1273;22194;-58
2023/06/15 01:10:20;;;;;;;13.20;3.60;;;;;;;12.41;84.29;100356.14;110156;1264;22261;-58
2023/06/15 01:12:54;;;;;;;11.50;3.90;;;;;;;12.41;84.46;100358.17;110092;1277;22183;-58
2023/06/15 01:15:26;;;;;;;13.90;4.30;;;;;;;12.40;84.81;100356.61;110129;1270;22185;-58
2023/06/15 01:17:59;;;;;;;10.60;3.30;;;;;;;12.42;84.92;100353.64;110101;1274;22241;-58
2023/06/15 01:20:38;;;;;;;11.60;3.60;;;;;;;12.43;85.00;100356.73;110141;1276;22481;-60
2023/06/15 01:23:22;;;;;;;12.10;4.40;;;;;;;12.45;85.30;100360.57;110169;1267;23005;-59
2023/06/15 01:26:06;;;;;;;12.50;4.90;;;;;;;12.46;85.77;100362.07;110044;1270;22261;-59
2023/06/15 01:28:40;;;;;;;13.70;4.30;;;;;;;12.48;85.90;100364.46;110142;1268;22432;-59
2023/06/15 01:31:13;;;;;;;14.00;4.30;;;;;;;12.51;86.01;100365.19;110145;1271;22448;-58
2023/06/15 01:33:48;;;;;;;11.30;4.80;;;;;;;12.52;86.34;100368.70;110187;1272;22224;-56
2023/06/15 01:36:20;;;;;;;14.30;4.60;;;;;;;12.54;86.40;100364.52;110138;1277;22140;-59
2023/06/15 01:38:53;;;;;;;15.80;5.40;;;;;;;12.56;86.71;100366.77;110099;1268;23470;-59
2023/06/15 01:41:27;;;;;;;18.30;7.20;;;;;;;12.60;87.02;100364.42;110166;1277;22211;-60
2023/06/15 01:43:59;;;;;;;15.50;6.00;;;;;;;12.63;87.29;100362.68;110184;1275;22179;-59
2023/06/15 01:46:32;;;;;;;13.40;5.30;;;;;;;12.66;87.41;100364.66;110148;1264;22436;-59
2023/06/15 01:49:03;;;;;;;16.10;6.50;;;;;;;12.71;87.34;100365.43;110161;1278;22176;-59
2023/06/15 01:51:36;;;;;;;17.10;6.60;;;;;;;12.72;87.49;100363.11;110148;1274;22347;-57
2023/06/15 01:54:08;;;;;;;17.30;6.50;;;;;;;12.73;87.46;100361.48;110165;1277;22321;-59
2023/06/15 01:56:40;;;;;;;16.50;6.30;;;;;;;12.75;87.38;100362.59;110159;1275;22252;-58
2023/06/15 01:59:11;;;;;;;15.00;5.50;;;;;;;12.77;87.56;100365.52;110134;1276;22851;-58
2023/06/15 02:01:41;;;;;;;17.20;6.50;;;;;;;12.78;87.47;100363.64;110145;1276;22668;-58
2023/06/15 02:04:13;;;;;;;17.40;5.50;;;;;;;12.78;87.65;100366.03;110160;1265;22367;-57
2023/06/15 02:06:43;;;;;;;17.70;6.70;;;;;;;12.79;87.73;100367.11;110166;1278;22547;-58
2023/06/15 02:09:15;;;;;;;14.60;5.90;;;;;;;12.79;87.74;100366.76;110126;1272;22255;-58
2023/06/15 02:11:46;;;;;;;15.60;5.50;;;;;;;12.80;88.00;100367.52;110114;1273;22178;-58
2023/06/15 02:14:17;;;;;;;10.70;4.70;;;;;;;12.81;88.01;100360.97;110137;1268;22138;-60
2023/06/15 02:16:49;;;;;;;12.00;4.80;;;;;;;12.83;87.92;100360.38;110155;1268;23017;-59
2023/06/15 02:19:21;;;;;;;14.70;6.20;;;;;;;12.84;88.28;100359.74;110138;1263;22683;-57
2023/06/15 02:21:52;;;;;;;16.90;7.30;;;;;;;12.85;88.37;100364.38;110071;1279;22195;-60
2023/06/15 02:24:23;;;;;;;15.30;5.60;;;;;;;12.88;88.57;100368.23;110103;1273;22181;-59
2023/06/15 02:26:54;;;;;;;18.10;6.20;;;;;;;12.91;88.56;100370.66;110077;1271;22250;-57
2023/06/15 02:29:26;;;;;;;15.60;6.80;;;;;;;12.93;88.33;100366.21;110125;1274;22194;-60
2023/06/15 02:31:57;;;;;;;15.60;6.20;;;;;;;12.97;88.44;100369.62;110131;1265;22208;-56
2023/06/15 02:34:28;;;;;;;15.30;6.00;;;;;;;12.99;88.63;100371.16;110120;1272;22321;-58
2023/06/15 02:36:59;;;;;;;17.60;6.70;;;;;;;12.99;88.67;100370.30;110156;1278;22272;-57
2023/06/15 02:39:30;;;;;;;14.70;5.40;;;;;;;13.00;88.78;100367.15;110153;1276;22286;-58
2023/06/15 02:42:01;;;;;;;15.50;6.30;;;;;;;13.01;88.67;100368.29;110105;1268;22206;-59
2023/06/15 02:44:32;;;;;;;12.40;5.40;;;;;;;13.01;88.78;100368.75;110142;1276;22145;-60
2023/06/15 02:47:02;;;;;;;16.00;7.10;;;;;;;13.01;88.95;100368.28;110145;1273;22212;-59
2023/06/15 02:49:33;;;;;;;16.50;6.70;;;;;;;13.01;88.98;100367.32;110138;1274;22404;-59
2023/06/15 02:52:05;;;;;;;15.10;6.90;;;;;;;13.03;88.94;100364.93;110136;1278;22198;-59
2023/06/15 02:54:36;;;;;;;17.00;6.60;;;;;;;13.04;89.17;100365.67;110138;1278;22385;-59
2023/06/15 02:57:08;;;;;;;15.40;6.30;;;;;;;13.04;89.12;100363.50;110151;1268;22217;-57
2023/06/15 02:59:40;;;;;;;15.50;6.20;;;;;;;13.06;89.42;100365.62;110173;1267;22171;-61
2023/06/15 03:02:11;;;;;;;20.90;7.60;;;;;;;13.07;89.35;100365.83;110137;1268;22196;-58
2023/06/15 03:04:47;;;;;;;16.20;6.10;;;;;;;13.07;89.19;100366.14;110111;1273;22242;-58
2023/06/15 03:07:20;;;;;;;16.30;7.30;;;;;;;13.07;89.30;100364.36;110124;1272;22296;-58
2023/06/15 03:09:52;;;;;;;19.60;7.10;;;;;;;13.09;89.42;100364.89;110143;1279;22408;-59
2023/06/15 03:12:23;;;;;;;15.70;6.90;;;;;;;13.10;89.45;100365.41;110094;1273;22931;-58
2023/06/15 03:14:54;;;;;;;16.00;6.20;;;;;;;13.10;89.35;100364.74;110100;1268;23149;-58
2023/06/15 03:17:25;;;;;;;18.70;7.40;;;;;;;13.10;89.55;100363.31;110133;1268;22195;-59
2023/06/15 03:19:56;;;;;;;14.50;7.00;;;;;;;13.10;89.72;100358.93;110129;1273;23420;-58
2023/06/15 03:22:27;;;;;;;17.20;6.80;;;;;;;13.10;89.95;100364.02;110132;1264;22273;-57
2023/06/15 03:24:59;;;;;;;21.30;8.00;;;;;;;13.11;89.98;100365.52;110144;1278;22290;-58
2023/06/15 03:27:32;;;;;;;15.80;6.60;;;;;;;13.12;90.04;100362.88;110100;1270;22298;-58
2023/06/15 03:30:05;;;;;;;18.00;7.00;;;;;;;13.14;90.07;100363.55;110054;1269;22149;-57
2023/06/15 03:32:37;;;;;;;15.00;7.30;;;;;;;13.16;90.25;100359.60;110030;1268;22449;-58
2023/06/15 03:35:12;;;;;;;18.00;7.30;;;;;;;13.17;90.34;100364.31;110062;1276;22149;-58
2023/06/15 03:37:43;;;;;;;19.20;7.70;;;;;;;13.19;90.47;100356.63;110098;1273;22242;-57
2023/06/15 03:40:14;;;;;;;22.70;8.30;;;;;;;13.21;90.60;100357.67;110088;1271;23080;-64
2023/06/15 03:42:45;;;;;;;15.20;6.60;;;;;;;13.24;90.66;100361.66;110114;1276;22201;-60
2023/06/15 03:45:17;;;;;;;16.00;7.40;;;;;;;13.26;90.51;100363.90;110082;1268;22335;-60
2023/06/15 03:47:49;;;;;;;16.80;8.00;;;;;;;13.29;90.84;100361.36;110125;1268;22174;-60
2023/06/15 03:50:20;;;;;;;17.80;7.80;;;;;;;13.31;91.04;100357.52;110103;1273;22204;-58
2023/06/15 03:52:51;;;;;;;17.10;7.70;;;;;;;13.35;91.26;100358.73;110066;1276;22208;-58
2023/06/15 03:55:22;;;;;;;20.00;8.50;;;;;;;13.38;91.26;100361.70;110137;1272;22309;-57
2023/06/15 03:57:53;;;;;;;18.30;8.00;;;;;;;13.41;91.46;100362.71;110064;1273;22154;-57
2023/06/15 04:00:24;;;;;;;18.20;8.40;;;;;;;13.46;91.30;100370.45;110096;1268;22174;-58
2023/06/15 04:02:56;;;;;;;19.20;9.10;;;;;;;13.51;91.53;100370.00;110092;1268;22298;-59
2023/06/15 04:05:27;;;;;;;20.70;8.70;;;;;;;13.54;91.50;100370.38;110156;1274;22230;-59
2023/06/15 04:07:59;;;;;;;20.00;8.20;;;;;;;13.57;91.51;100373.73;110045;1275;22367;-59
2023/06/15 04:10:30;;;;;;;20.10;8.30;;;;;;;13.60;91.51;100377.71;110069;1263;22315;-57
2023/06/15 04:13:01;;;;;;;20.20;8.60;;;;;;;13.63;91.72;100380.11;110129;1268;22379;-60
2023/06/15 04:15:32;;;;;;;22.60;9.40;;;;;;;13.65;91.79;100373.95;110065;1276;22229;-58
2023/06/15 04:18:03;;;;;;;19.80;9.10;;;;;;;13.70;91.91;100378.77;110123;1268;23324;-62
2023/06/15 04:20:34;;;;;;;23.70;9.50;;;;;;;13.76;92.11;100373.42;110161;1272;22323;-60
2023/06/15 04:23:05;;;;;;;26.80;12.10;;;;;;;13.82;92.14;100372.25;110178;1267;22305;-60
2023/06/15 04:25:37;;;;;;;31.20;15.80;;;;;;;13.88;92.21;100375.97;110122;1273;22198;-61
2023/06/15 04:28:10;;;;;;;29.40;13.90;;;;;;;13.93;92.13;100372.59;110059;1272;22187;-59
2023/06/15 04:30:44;;;;;;;19.80;11.30;;;;;;;13.99;92.03;100370.89;110063;1279;23559;-60
2023/06/15 04:33:16;;;;;;;23.90;10.90;;;;;;;14.04;92.11;100369.76;110087;1276;22336;-61
2023/06/15 04:35:46;;;;;;;20.30;9.00;;;;;;;14.10;92.25;100370.30;110101;1273;22167;-58
2023/06/15 04:38:17;;;;;;;22.90;9.60;;;;;;;14.17;92.24;100366.41;110058;1275;23044;-60
2023/06/15 04:40:48;;;;;;;18.90;9.10;;;;;;;14.23;92.29;100365.45;110066;1273;22465;-58
2023/06/15 04:43:20;;;;;;;22.20;9.30;;;;;;;14.27;92.47;100363.27;110072;1264;22825;-61
2023/06/15 04:45:51;;;;;;;21.10;9.80;;;;;;;14.31;92.26;100362.61;110077;1279;22165;-58
2023/06/15 04:48:21;;;;;;;21.90;9.90;;;;;;;14.38;92.28;100364.45;110157;1272;22201;-59
2023/06/15 04:50:53;;;;;;;21.80;9.20;;;;;;;14.44;92.23;100368.77;110136;1272;22201;-59
2023/06/15 04:53:24;;;;;;;22.10;10.10;;;;;;;14.50;92.34;100369.77;110196;1277;22287;-60
2023/06/15 04:55:55;;;;;;;19.90;9.60;;;;;;;14.57;92.37;100370.32;110184;1276;22804;-58
2023/06/15 04:58:26;;;;;;;21.70;10.00;;;;;;;14.65;92.28;100371.52;110124;1267;22318;-59
2023/06/15 05:00:57;;;;;;;21.00;9.60;;;;;;;14.71;92.18;100376.19;110133;1274;22518;-59
2023/06/15 05:03:28;;;;;;;23.40;9.90;;;;;;;14.76;91.96;100374.98;110123;1273;22191;-59
2023/06/15 05:05:59;;;;;;;22.60;8.30;;;;;;;14.82;91.73;100373.18;110106;1276;22240;-58
2023/06/15 05:08:30;;;;;;;25.30;9.80;;;;;;;14.88;91.66;100376.16;110105;1266;22181;-58
2023/06/15 05:11:01;;;;;;;22.10;9.30;;;;;;;14.94;91.54;100377.58;110104;1273;22153;-61
2023/06/15 05:13:32;;;;;;;22.80;11.10;;;;;;;14.95;91.17;100383.14;110115;1273;22350;-59
2023/06/15 05:16:03;;;;;;;21.10;9.90;;;;;;;15.00;91.12;100387.14;110084;1279;23063;-61
2023/06/15 05:18:33;;;;;;;24.70;9.50;;;;;;;15.04;91.19;100387.05;110098;1270;22329;-60
2023/06/15 05:21:05;;;;;;;22.10;10.60;;;;;;;15.04;91.20;100392.57;110090;1273;22323;-57
2023/06/15 05:23:36;;;;;;;18.50;9.20;;;;;;;15.03;90.95;100389.50;110092;1273;22153;-60
2023/06/15 05:26:07;;;;;;;20.00;10.10;;;;;;;15.07;91.15;100391.15;110109;1269;22316;-59
2023/06/15 05:28:38;;;;;;;24.30;10.10;;;;;;;15.14;91.27;100390.56;110108;1273;22208;-62
2023/06/15 05:31:09;;;;;;;18.40;9.50;;;;;;;15.18;91.01;100395.98;110120;1273;22398;-62
2023/06/15 05:33:40;;;;;;;20.20;9.80;;;;;;;15.23;91.30;100393.60;110144;1273;22189;-59
2023/06/15 05:36:11;;;;;;;24.00;11.60;;;;;;;15.29;91.14;100398.27;110084;1273;23704;-61
2023/06/15 05:38:42;;;;;;;21.30;11.90;;;;;;;15.35;91.19;100398.75;110128;1273;22439;-62
2023/06/15 05:41:13;;;;;;;22.40;11.80;;;;;;;15.41;90.82;100402.95;110132;1273;22379;-59
2023/06/15 05:43:43;;;;;;;24.00;12.00;;;;;;;15.47;90.94;100405.35;110141;1274;23011;-60
2023/06/15 05:46:15;;;;;;;22.70;11.50;;;;;;;15.53;90.79;100403.31;110124;1273;22362;-58
2023/06/15 05:48:46;;;;;;;24.80;11.40;;;;;;;15.60;90.55;100406.59;110145;1273;22172;-60
2023/06/15 05:51:16;;;;;;;27.70;11.10;;;;;;;15.68;90.49;100403.02;110119;1274;23012;-59
2023/06/15 05:53:47;;;;;;;25.00;11.20;;;;;;;15.78;90.27;100407.02;110142;1276;23178;-61
2023/06/15 05:56:19;;;;;;;24.10;10.30;;;;;;;15.87;90.17;100409.78;110117;1272;22330;-60
2023/06/15 05:58:50;;;;;;;19.60;9.50;;;;;;;15.90;89.81;100408.96;110132;1274;22167;-59
2023/06/15 06:01:21;;;;;;;25.60;11.30;;;;;;;15.95;89.96;100406.86;110097;1270;22941;-60
2023/06/15 06:03:52;;;;;;;30.60;11.30;;;;;;;16.02;90.00;100406.92;110143;1278;22322;-59
2023/06/15 06:06:23;;;;;;;23.40;10.40;;;;;;;16.11;90.04;100412.13;110146;1274;22172;-60
2023/06/15 06:08:54;;;;;;;25.40;11.70;;;;;;;16.19;89.74;100414.27;110097;1273;22806;-59
2023/06/15 06:11:25;;;;;;;23.70;11.00;;;;;;;16.27;89.45;100411.55;110133;1265;22198;-60
2023/06/15 06:13:56;;;;;;;21.80;10.00;;;;;;;16.35;89.49;100416.20;110079;1273;23063;-59
2023/06/15 06:16:28;;;;;;;22.30;10.90;;;;;;;16.45;89.39;100414.64;110085;1273;22335;-59
2023/06/15 06:18:58;;;;;;;20.40;10.80;;;;;;;16.49;88.79;100417.11;110246;1278;22176;-59
2023/06/15 06:21:31;;;;;;;22.50;8.90;;;;;;;16.49;88.26;100417.58;110179;1273;23023;-59
2023/06/15 06:24:02;;;;;;;18.70;8.70;;;;;;;16.53;88.19;100413.73;110189;1273;23180;-60
2023/06/15 06:26:36;;;;;;;20.30;8.50;;;;;;;16.60;87.78;100412.23;110198;1276;23185;-59
2023/06/15 06:29:07;;;;;;;17.40;9.20;;;;;;;16.63;87.36;100411.09;110193;1273;22271;-61
2023/06/15 06:31:38;;;;;;;20.10;8.20;;;;;;;16.67;87.29;100412.67;110165;1274;22396;-60
2023/06/15 06:34:09;;;;;;;16.80;8.30;;;;;;;16.73;87.53;100418.95;110210;1264;22173;-62
2023/06/15 06:36:40;;;;;;;19.00;7.70;;;;;;;16.78;86.24;100421.45;110187;1277;22165;-61
2023/06/15 06:39:11;;;;;;;17.60;7.70;;;;;;;16.79;86.13;100424.23;110148;1264;22138;-60
2023/06/15 06:41:42;;;;;;;12.00;5.60;;;;;;;16.86;85.84;100423.33;110167;1272;22365;-61
2023/06/15 06:44:14;;;;;;;15.20;5.40;;;;;;;16.90;85.09;100421.58;106013;1273;5415934;-59
2023/06/15 06:46:45;;;;;;;15.80;7.00;;;;;;;16.99;84.77;100421.84;110165;1273;22167;-60
2023/06/15 06:49:16;;;;;;;16.80;6.40;;;;;;;17.07;84.54;100425.90;110164;1264;22687;-59
2023/06/15 06:51:47;;;;;;;15.70;6.20;;;;;;;17.14;84.21;100419.61;110207;1276;22209;-61
2023/06/15 06:54:18;;;;;;;13.90;5.20;;;;;;;17.17;83.54;100421.30;110165;1271;22169;-62
2023/06/15 06:56:49;;;;;;;12.30;5.20;;;;;;;17.22;83.94;100419.99;110220;1268;23177;-61
2023/06/15 06:59:21;;;;;;;14.60;4.90;;;;;;;17.32;83.64;100415.61;110180;1277;22391;-61
2023/06/15 07:01:51;;;;;;;12.50;4.60;;;;;;;17.40;82.62;100414.75;110201;1272;22232;-61
2023/06/15 07:04:22;;;;;;;14.50;6.40;;;;;;;17.41;82.16;100420.75;110174;1272;22264;-61
2023/06/15 07:06:53;;;;;;;12.00;3.80;;;;;;;17.42;81.66;100417.92;110212;1278;22211;-59
2023/06/15 07:09:24;;;;;;;13.50;4.70;;;;;;;17.43;81.32;100415.35;110198;1273;22856;-61
2023/06/15 07:11:55;;;;;;;14.50;4.40;;;;;;;17.50;81.71;100414.97;110181;1269;22269;-60
2023/06/15 07:14:26;;;;;;;15.20;5.50;;;;;;;17.63;81.53;100413.30;110193;1271;22440;-59
2023/06/15 07:16:57;;;;;;;15.40;4.50;;;;;;;17.77;80.75;100414.59;110159;1263;22188;-61
2023/06/15 07:19:28;;;;;;;15.80;7.10;;;;;;;17.90;80.47;100410.03;110118;1272;22288;-61
2023/06/15 07:21:59;;;;;;;14.50;5.10;;;;;;;18.01;80.03;100411.67;110210;1278;22260;-59
2023/06/15 07:24:30;;;;;;;11.20;3.80;;;;;;;18.10;79.30;100408.88;110171;1273;24254;-61
2023/06/15 07:27:01;;;;;;;17.10;6.10;;;;;;;18.17;78.42;100405.77;110155;1274;22219;-59
2023/06/15 07:29:32;;;;;;;13.90;5.60;;;;;;;18.27;79.57;100404.86;110149;1273;22234;-60
2023/06/15 07:32:03;;;;;;;15.40;5.50;;;;;;;18.41;79.64;100405.70;110129;1273;22200;-61
2023/06/15 07:34:34;;;;;;;15.30;4.60;;;;;;;18.53;78.75;100407.27;110122;1273;23390;-61
2023/06/15 07:37:05;;;;;;;10.60;4.30;;;;;;;18.64;78.20;100402.81;110152;1278;22361;-63
2023/06/15 07:39:36;;;;;;;15.80;5.20;;;;;;;18.72;77.22;100403.73;110184;1272;22410;-60
2023/06/15 07:42:09;;;;;;;12.80;4.70;;;;;;;18.78;76.97;100404.29;110138;1273;22205;-61
2023/06/15 07:44:40;;;;;;;12.90;4.20;;;;;;;18.81;76.41;100401.58;110176;1270;22335;-60
2023/06/15 07:47:11;;;;;;;11.30;4.30;;;;;;;18.87;76.04;100403.36;110152;1273;22284;-61
2023/06/15 07:49:41;;;;;;;12.80;3.70;;;;;;;18.87;75.22;100401.15;110122;1273;22271;-61
2023/06/15 07:52:12;;;;;;;14.10;4.30;;;;;;;18.87;75.06;100404.80;110160;1264;22242;-59
2023/06/15 07:54:43;;;;;;;12.50;3.40;;;;;;;18.85;74.64;100400.50;110150;1278;22191;-61
2023/06/15 07:57:14;;;;;;;8.90;3.00;;;;;;;18.90;74.76;100401.06;110188;1271;22205;-61
2023/06/15 07:59:45;;;;;;;9.20;2.70;;;;;;;18.96;73.72;100395.73;110143;1273;22162;-60
2023/06/15 08:02:16;;;;;;;11.10;4.10;;;;;;;19.03;73.51;100395.14;110172;1273;22207;-61
2023/06/15 08:04:47;;;;;;;13.50;4.20;;;;;;;19.12;73.58;100395.48;110080;1272;22231;-60
2023/06/15 08:07:18;;;;;;;13.60;4.90;;;;;;;19.21;73.39;100400.13;110066;1273;22146;-61
2023/06/15 08:09:49;;;;;;;11.80;3.10;;;;;;;19.25;73.10;100392.83;110114;1278;22362;-61
2023/06/15 08:12:20;;;;;;;14.10;4.40;;;;;;;19.34;73.19;100390.67;110153;1273;22190;-62
2023/06/15 08:14:51;;;;;;;12.10;3.60;;;;;;;19.38;72.44;100392.93;110173;1271;22172;-59
2023/06/15 08:17:22;;;;;;;13.00;4.50;;;;;;;19.38;72.27;100393.52;110176;1271;22198;-61
2023/06/15 08:19:53;;;;;;;13.20;4.40;;;;;;;19.35;71.72;100392.06;110150;1264;22200;-61
2023/06/15 08:22:24;;;;;;;11.70;3.30;;;;;;;19.31;71.37;100393.47;110180;1264;22324;-61
2023/06/15 08:24:55;;;;;;;9.40;3.20;;;;;;;19.31;71.45;100394.90;110172;1271;22968;-59
2023/06/15 08:27:26;;;;;;;10.40;2.90;;;;;;;19.25;70.76;100393.91;110212;1273;22217;-62
2023/06/15 08:29:58;;;;;;;8.60;3.30;;;;;;;19.14;70.44;100395.86;110147;1263;22205;-60
2023/06/15 08:32:30;;;;;;;11.20;3.70;;;;;;;19.01;70.61;100400.88;110166;1276;22450;-59
2023/06/15 08:35:00;;;;;;;13.20;3.10;;;;;;;18.91;70.65;100402.48;110173;1273;22205;-61
2023/06/15 08:37:31;;;;;;;13.70;3.60;;;;;;;18.81;69.85;100403.84;110129;1264;22399;-60
2023/06/15 08:40:06;;;;;;;11.50;3.80;;;;;;;18.71;69.67;100406.89;110162;1278;22931;-60
2023/06/15 08:42:38;;;;;;;16.10;3.60;;;;;;;18.59;69.54;100405.21;110147;1278;22900;-64
2023/06/15 08:45:10;;;;;;;12.60;4.00;;;;;;;18.49;69.42;100409.60;110203;1273;22758;-63
2023/06/15 08:47:42;;;;;;;13.00;3.90;;;;;;;18.41;70.08;100404.21;110147;1268;22263;-63
2023/06/15 08:50:13;;;;;;;10.60;3.30;;;;;;;18.40;70.79;100403.45;110165;1273;22481;-63
2023/06/15 08:52:46;;;;;;;14.60;3.60;;;;;;;18.41;71.00;100407.30;110163;1255;22456;-63
2023/06/15 08:55:18;;;;;;;10.80;3.60;;;;;;;18.43;71.30;100400.30;110157;1272;22300;-64
2023/06/15 08:57:50;;;;;;;17.00;4.70;;;;;;;18.52;71.44;100401.40;110214;1278;22341;-63
2023/06/15 09:00:22;;;;;;;14.30;4.50;;;;;;;18.55;71.37;100400.02;110148;1270;22230;-63
2023/06/15 09:02:56;;;;;;;14.10;4.60;;;;;;;18.61;71.73;100399.77;110086;1273;22242;-62
2023/06/15 09:05:27;;;;;;;13.10;4.70;;;;;;;18.66;71.71;100402.77;110167;1264;22209;-63
2023/06/15 09:07:59;;;;;;;18.00;5.30;;;;;;;18.67;71.32;100399.85;110148;1271;22921;-63
2023/06/15 09:10:31;;;;;;;15.90;5.30;;;;;;;18.68;71.31;100403.83;110167;1272;22304;-63
2023/06/15 09:13:02;;;;;;;16.70;5.40;;;;;;;18.75;71.05;100398.67;110155;1278;22145;-63
2023/06/15 09:15:33;;;;;;;12.20;4.50;;;;;;;18.79;71.13;100398.92;110137;1271;22322;-63
2023/06/15 09:18:05;;;;;;;15.70;6.00;;;;;;;18.89;70.95;100399.90;110146;1276;23313;-63
2023/06/15 09:20:41;;;;;;;15.90;5.70;;;;;;;18.96;70.82;100405.10;110179;1276;22342;-65
2023/06/15 09:23:13;;;;;;;12.80;3.40;;;;;;;19.03;70.47;100407.23;110051;1273;22346;-61
2023/06/15 09:25:52;;;;;;;12.80;4.80;;;;;;;19.08;69.70;100406.49;110067;1265;22216;-65
2023/06/15 09:28:27;;;;;;;13.70;4.20;;;;;;;19.14;69.28;100409.75;110136;1264;22430;-58
2023/06/15 09:30:59;;;;;;;10.80;3.60;;;;;;;19.15;68.69;100408.46;110227;1278;22195;-60
2023/06/15 09:33:32;;;;;;;10.00;3.20;;;;;;;19.16;67.23;100415.65;110248;1264;22330;-65
2023/06/15 09:36:04;;;;;;;13.10;3.40;;;;;;;19.18;66.82;100411.77;110202;1274;22297;-59
2023/06/15 09:38:42;;;;;;;8.30;2.50;;;;;;;19.20;66.61;100408.77;110184;1271;22211;-59
2023/06/15 09:41:14;;;;;;;10.40;2.60;;;;;;;19.23;66.50;100405.67;110060;1274;22128;-59
2023/06/15 09:43:46;;;;;;;12.20;2.70;;;;;;;19.29;65.36;100405.70;110121;1272;22312;-60
2023/06/15 09:46:19;;;;;;;8.90;2.50;;;;;;;19.32;65.29;100409.67;110118;1264;22446;-60
2023/06/15 09:48:50;;;;;;;7.70;2.50;;;;;;;19.39;65.49;100399.65;110154;1271;22219;-59
2023/06/15 09:51:20;;;;;;;9.00;2.20;;;;;;;19.50;64.26;100401.30;110103;1274;22331;-59
2023/06/15 09:53:54;;;;;;;13.70;2.50;;;;;;;19.50;63.76;100400.52;110127;1272;22382;-59
2023/06/15 09:56:25;;;;;;;8.60;2.70;;;;;;;19.50;63.76;100398.42;110115;1265;22343;-60
2023/06/15 09:58:57;;;;;;;10.80;3.10;;;;;;;19.53;63.68;100394.06;110136;1265;22271;-60
2023/06/15 10:01:30;;;;;;;11.80;2.60;;;;;;;19.61;63.53;100395.64;110097;1271;22252;-62
2023/06/15 10:04:03;;;;;;;8.10;2.40;;;;;;;19.69;62.85;100389.68;110106;1272;22327;-61
2023/06/15 10:06:35;;;;;;;9.20;2.00;;;;;;;19.78;62.33;100388.60;110114;1271;22827;-61
2023/06/15 10:09:09;;;;;;;7.50;1.80;;;;;;;19.86;61.84;100394.14;110082;1272;22327;-59
2023/06/15 10:11:43;;;;;;;8.10;2.20;;;;;;;19.93;61.26;100388.80;110124;1274;23140;-60
2023/06/15 10:14:20;;;;;;;9.40;1.90;;;;;;;19.97;60.86;100387.42;110189;1264;22235;-61
2023/06/15 10:16:59;;;;;;;7.70;2.10;;;;;;;20.05;60.72;100387.23;110048;1275;22211;-60
2023/06/15 10:19:32;;;;;;;7.50;1.60;;;;;;;20.16;60.57;100389.66;110148;1271;23205;-58
2023/06/15 10:22:06;;;;;;;6.90;1.90;;;;;;;20.23;60.31;100392.88;110223;1278;22861;-59
2023/06/15 10:24:39;;;;;;;8.30;2.20;;;;;;;20.28;59.81;100391.70;110142;1278;22411;-61
2023/06/15 10:27:10;;;;;;;6.90;2.00;;;;;;;20.27;59.35;100393.16;110190;1272;22293;-61
2023/06/15 10:29:52;;;;;;;10.90;2.10;;;;;;;20.27;59.53;100389.35;110166;1265;22379;-63
2023/06/15 10:32:30;;;;;;;8.60;2.30;;;;;;;20.29;59.66;100384.42;110156;1274;22233;-59
2023/06/15 10:35:08;;;;;;;14.10;2.40;;;;;;;20.35;59.58;100387.70;110145;1274;22279;-59
2023/06/15 10:37:46;;;;;;;9.40;2.60;;;;;;;20.45;59.31;100385.62;110155;1276;22811;-61
2023/06/15 10:40:22;;;;;;;7.00;1.90;;;;;;;20.49;59.19;100381.45;110157;1272;22197;-60
2023/06/15 10:42:56;;;;;;;7.60;2.30;;;;;;;20.51;58.95;100386.01;110158;1278;22222;-61
2023/06/15 10:45:33;;;;;;;10.20;2.80;;;;;;;20.54;58.83;100386.78;110214;1276;22213;-62
2023/06/15 10:48:04;;;;;;;9.10;2.00;;;;;;;20.59;58.91;100384.36;110181;1268;22168;-60
2023/06/15 10:50:48;;;;;;;11.90;2.50;;;;;;;20.65;58.75;100378.36;110190;1271;22307;-61
2023/06/15 10:53:26;;;;;;;10.80;2.50;;;;;;;20.66;58.72;100379.88;110173;1268;22164;-62
2023/06/15 10:55:59;;;;;;;8.60;1.90;;;;;;;20.73;58.66;100374.64;110144;1267;22215;-59
2023/06/15 10:58:30;;;;;;;12.40;2.20;;;;;;;20.84;58.69;100370.48;110138;1272;22521;-60
2023/06/15 11:01:15;;;;;;;7.70;2.20;;;;;;;20.88;57.41;100372.72;110215;1264;22171;-60
2023/06/15 11:03:46;;;;;;;10.60;2.20;;;;;;;20.87;57.02;100369.46;110196;1271;22210;-61
2023/06/15 11:06:19;;;;;;;6.70;2.20;;;;;;;20.87;57.05;100370.06;110158;1273;22207;-62
2023/06/15 11:08:52;;;;;;;11.90;3.00;;;;;;;20.90;57.66;100368.05;110189;1271;22257;-59
2023/06/15 11:11:31;;;;;;;14.50;3.40;;;;;;;20.88;57.87;100368.75;110172;1265;22243;-62
2023/06/15 11:14:04;;;;;;;9.90;2.00;;;;;;;20.84;57.56;100365.91;110053;1267;22168;-61
2023/06/15 11:16:36;;;;;;;8.40;1.90;;;;;;;20.87;57.77;100362.53;110169;1269;22364;-61
2023/06/15 11:19:26;;;;;;;10.80;2.60;;;;;;;20.87;57.00;100364.27;110138;1271;22191;-62
2023/06/15 11:22:06;;;;;;;9.00;2.40;;;;;;;20.88;57.31;100360.65;110175;1271;22878;-61
2023/06/15 11:24:41;;;;;;;9.80;2.10;;;;;;;20.88;56.68;100359.06;110152;1260;22225;-62
2023/06/15 11:27:14;;;;;;;9.70;2.70;;;;;;;20.89;56.66;100363.51;110178;1274;22178;-62
2023/06/15 11:29:45;;;;;;;7.90;2.30;;;;;;;20.89;56.52;100361.58;110156;1268;22300;-66
2023/06/15 11:32:16;;;;;;;9.80;2.60;;;;;;;20.90;56.36;100357.88;110271;1274;22196;-62